Time;durP1;ratioP1;P1;durP2;ratioP2;P2;SDS_P1;SDS_P2;PMS_P1;PMS_P2;Temp;Humidity;BMP_temperature;BMP_pressure;BME280_temperature;BME280_humidity;BME280_pressure;Samples;Min_cycle;Max_cycle;Signal;HPM_P1;HPM_P2
2023/02/05 00:01:15;;;;;;;13.82;3.25;;;;;;;2.89;100.00;103285.34;5069784;28;20752;-81
2023/02/05 00:03:43;;;;;;;17.02;3.17;;;;;;;2.83;100.00;103279.34;5065002;28;20684;-81
2023/02/05 00:06:09;;;;;;;19.15;3.00;;;;;;;2.85;100.00;103279.31;5065714;28;20060;-81
2023/02/05 00:08:35;;;;;;;10.95;2.85;;;;;;;2.88;100.00;103270.56;5062091;28;20114;-81
2023/02/05 00:11:08;;;;;;;16.27;2.78;;;;;;;2.88;100.00;103275.78;5045439;28;20589;-81
2023/02/05 00:13:38;;;;;;;16.08;3.42;;;;;;;2.74;100.00;103274.22;5045910;28;20036;-81
2023/02/05 00:16:18;;;;;;;11.55;2.85;;;;;;;2.63;100.00;103278.75;5060148;28;20150;-81
2023/02/05 00:18:46;;;;;;;11.77;2.42;;;;;;;2.63;100.00;103260.47;5063383;28;20641;-81
2023/02/05 00:21:13;;;;;;;15.13;3.20;;;;;;;2.67;100.00;103249.97;5062835;28;20049;-81
2023/02/05 00:23:40;;;;;;;11.27;2.97;;;;;;;2.73;100.00;103249.88;5081642;28;20515;-79
2023/02/05 00:26:07;;;;;;;16.67;3.75;;;;;;;2.78;100.00;103256.75;5065216;28;20059;-82
2023/02/05 00:28:34;;;;;;;10.65;3.65;;;;;;;2.81;100.00;103249.75;5062542;28;20044;-82
2023/02/05 00:31:05;;;;;;;13.00;3.33;;;;;;;2.75;100.00;103241.13;5064168;28;20136;-81
2023/02/05 00:33:31;;;;;;;7.35;2.60;;;;;;;2.69;100.00;103239.50;5063806;28;20056;-81
2023/02/05 00:35:57;;;;;;;17.40;4.55;;;;;;;2.55;100.00;103255.38;5065139;28;20097;-81
2023/02/05 00:38:26;;;;;;;12.63;3.60;;;;;;;2.32;100.00;103246.97;5061747;28;20400;-81
2023/02/05 00:40:55;;;;;;;19.77;4.38;;;;;;;2.15;100.00;103241.09;5063900;28;20064;-80
2023/02/05 00:43:22;;;;;;;13.90;4.25;;;;;;;1.97;100.00;103232.63;5064539;28;20040;-80
2023/02/05 00:45:50;;;;;;;13.48;3.72;;;;;;;1.80;100.00;103235.44;5059890;28;20511;-81
2023/02/05 00:48:26;;;;;;;12.23;3.63;;;;;;;1.69;100.00;103225.13;5077974;28;21085;-81
2023/02/05 00:51:11;;;;;;;10.82;3.22;;;;;;;1.57;100.00;103216.53;5065931;28;20131;-80
2023/02/05 00:53:38;;;;;;;11.20;4.35;;;;;;;1.53;100.00;103235.69;5063560;28;20443;-80
2023/02/05 00:56:07;;;;;;;11.32;4.18;;;;;;;1.56;100.00;103234.81;5051267;28;20078;-82
2023/02/05 00:58:33;;;;;;;22.65;5.45;;;;;;;1.59;100.00;103245.19;5068415;28;20052;-83
2023/02/05 01:00:58;;;;;;;25.15;6.55;;;;;;;1.56;100.00;103255.66;5085542;28;20532;-82
2023/02/05 01:03:25;;;;;;;26.88;6.97;;;;;;;1.32;100.00;103261.06;5067511;28;20044;-83
2023/02/05 01:05:51;;;;;;;16.33;5.38;;;;;;;1.08;100.00;103298.63;5067407;28;20028;-82
2023/02/05 01:08:17;;;;;;;17.10;5.50;;;;;;;1.05;100.00;103319.50;5066595;28;20051;-82
2023/02/05 01:10:45;;;;;;;13.13;6.40;;;;;;;0.77;100.00;103319.66;5080811;28;20110;-82
2023/02/05 01:13:12;;;;;;;17.30;6.47;;;;;;;0.52;100.00;103330.19;5049969;28;20029;-82
2023/02/05 01:15:37;;;;;;;18.73;5.90;;;;;;;0.60;100.00;103355.34;5049101;28;20036;-82
2023/02/05 01:18:03;;;;;;;17.73;5.88;;;;;;;0.78;100.00;103360.44;5069827;28;20029;-82
2023/02/05 01:20:29;;;;;;;16.90;4.78;;;;;;;0.89;100.00;103349.97;5062238;28;20032;-82
2023/02/05 01:22:55;;;;;;;18.02;5.80;;;;;;;0.98;100.00;103356.00;5065070;28;20032;-82
2023/02/05 01:25:21;;;;;;;19.65;6.25;;;;;;;1.05;100.00;103380.25;5065149;28;20028;-80
2023/02/05 01:27:47;;;;;;;26.25;6.57;;;;;;;1.12;100.00;103370.66;5049905;28;20029;-80
2023/02/05 01:30:13;;;;;;;14.95;5.38;;;;;;;1.15;100.00;103357.63;5064543;28;20044;-82
2023/02/05 01:32:40;;;;;;;17.23;6.35;;;;;;;1.04;100.00;103357.69;5080608;28;20358;-82
2023/02/05 01:35:07;;;;;;;17.77;5.90;;;;;;;1.02;100.00;103380.28;5066198;28;20083;-82
2023/02/05 01:37:39;;;;;;;13.70;6.22;;;;;;;1.15;100.00;103398.47;5048402;28;20120;-82
2023/02/05 01:40:07;;;;;;;19.85;5.13;;;;;;;1.17;100.00;103387.16;5065460;28;20036;-82
2023/02/05 01:42:33;;;;;;;16.13;5.43;;;;;;;1.28;100.00;103384.47;5081556;28;20024;-82
2023/02/05 01:45:35;;;;;;;18.15;5.10;;;;;;;1.32;100.00;103388.78;5048467;28;20044;-82
2023/02/05 01:48:07;;;;;;;12.40;5.72;;;;;;;1.28;100.00;103394.88;5004267;28;20042;-82
2023/02/05 01:50:41;;;;;;;11.95;4.38;;;;;;;1.23;100.00;103399.25;5044777;28;20075;-79
2023/02/05 01:53:12;;;;;;;16.52;4.78;;;;;;;1.29;100.00;103414.00;5065549;28;20032;-80
2023/02/05 01:55:44;;;;;;;16.27;5.05;;;;;;;1.29;100.00;103414.00;5051071;28;20043;-81
2023/02/05 01:58:11;;;;;;;13.18;4.13;;;;;;;1.25;100.00;103418.38;5066088;28;20139;-83
2023/02/05 02:00:37;;;;;;;10.32;4.47;;;;;;;1.26;100.00;103419.25;5033234;28;20040;-82
2023/02/05 02:03:03;;;;;;;23.92;4.43;;;;;;;1.24;100.00;103427.91;5066331;28;20133;-82
2023/02/05 02:05:29;;;;;;;20.90;4.50;;;;;;;1.23;100.00;103434.00;5064005;28;20028;-82
2023/02/05 02:07:55;;;;;;;12.65;4.07;;;;;;;1.19;100.00;103421.88;5051072;28;20040;-82
2023/02/05 02:10:21;;;;;;;22.02;5.22;;;;;;;1.09;100.00;103422.78;5065917;28;20032;-82
2023/02/05 02:12:49;;;;;;;10.75;3.58;;;;;;;1.07;100.00;103430.63;5039718;28;20063;-82
2023/02/05 02:15:18;;;;;;;13.35;3.45;;;;;;;1.03;100.00;103428.91;5048187;28;20040;-81
2023/02/05 02:17:48;;;;;;;12.50;3.53;;;;;;;1.05;100.00;103419.31;5038485;28;20033;-82
2023/02/05 02:20:17;;;;;;;20.40;4.53;;;;;;;1.04;100.00;103417.59;5063405;28;20037;-81
2023/02/05 02:22:52;;;;;;;15.00;3.67;;;;;;;1.06;100.00;103430.63;5050014;28;20598;-82
2023/02/05 02:25:42;;;;;;;23.13;4.30;;;;;;;1.10;100.00;103424.50;5071034;28;20025;-81
2023/02/05 02:28:42;;;;;;;15.13;3.67;;;;;;;1.17;100.00;103430.56;5053511;28;20036;-81
2023/02/05 02:31:18;;;;;;;22.67;4.10;;;;;;;1.16;100.00;103434.06;5044774;28;20447;-81
2023/02/05 02:33:51;;;;;;;17.77;4.50;;;;;;;1.17;100.00;103421.03;5053334;28;20040;-81
2023/02/05 02:36:26;;;;;;;12.30;3.60;;;;;;;1.14;100.00;103431.47;5087160;28;20473;-81
2023/02/05 02:39:16;;;;;;;16.35;3.85;;;;;;;1.00;100.00;103418.50;5058700;28;20101;-81
2023/02/05 02:42:01;;;;;;;10.52;3.65;;;;;;;0.92;100.00;103412.47;5063036;28;20405;-81
2023/02/05 02:44:38;;;;;;;11.40;3.78;;;;;;;0.88;100.00;103408.16;5069245;28;20036;-82
2023/02/05 02:47:32;;;;;;;20.50;5.43;;;;;;;0.89;100.00;103415.97;5045538;28;20546;-82
2023/02/05 02:50:02;;;;;;;13.63;3.90;;;;;;;0.91;100.00;103418.56;5079301;28;20053;-81
2023/02/05 02:52:34;;;;;;;14.35;4.88;;;;;;;0.92;100.00;103408.13;5062697;28;20025;-81
2023/02/05 02:55:06;;;;;;;12.65;3.50;;;;;;;0.89;100.00;103389.91;5065668;28;20109;-81
2023/02/05 02:57:36;;;;;;;10.00;3.17;;;;;;;0.78;100.00;103384.72;5065066;28;20025;-81
2023/02/05 03:00:08;;;;;;;16.00;4.20;;;;;;;0.77;100.00;103397.75;5071627;28;20033;-81
2023/02/05 03:02:36;;;;;;;14.75;4.30;;;;;;;0.71;100.00;103386.53;5047277;28;20528;-81
2023/02/05 03:05:08;;;;;;;15.73;5.03;;;;;;;0.69;100.00;103389.97;5069589;28;20064;-82
2023/02/05 03:07:40;;;;;;;13.60;4.60;;;;;;;0.65;100.00;103393.47;5055094;28;20532;-81
2023/02/05 03:10:18;;;;;;;11.63;3.95;;;;;;;0.65;100.00;103394.34;5051376;28;20068;-81
2023/02/05 03:12:44;;;;;;;15.45;4.22;;;;;;;0.63;100.00;103395.22;5061604;28;20037;-82
2023/02/05 03:15:11;;;;;;;12.15;3.67;;;;;;;0.63;100.00;103403.03;5032718;28;20040;-81
2023/02/05 03:17:38;;;;;;;12.32;3.97;;;;;;;0.57;100.00;103402.19;5054299;28;20073;-81
2023/02/05 03:20:27;;;;;;;11.90;4.38;;;;;;;0.55;100.00;103405.66;5070597;28;20066;-81
2023/02/05 03:22:55;;;;;;;10.90;3.85;;;;;;;0.53;100.00;103396.97;5069048;28;20035;-81
2023/02/05 03:25:22;;;;;;;11.82;4.07;;;;;;;0.47;100.00;103392.66;5071054;28;20485;-81
2023/02/05 03:27:52;;;;;;;11.75;3.90;;;;;;;0.37;100.00;103404.84;5063589;28;20039;-81
2023/02/05 03:30:20;;;;;;;13.70;4.20;;;;;;;0.32;100.00;103404.00;5087202;28;20107;-81
2023/02/05 03:33:29;;;;;;;8.82;3.88;;;;;;;0.30;100.00;103369.31;5062477;28;20047;-81
2023/02/05 03:36:11;;;;;;;12.13;3.88;;;;;;;0.23;100.00;103369.31;5049348;28;20102;-82
2023/02/05 03:39:13;;;;;;;15.43;4.18;;;;;;;0.29;100.00;103393.59;5070263;28;20039;-80
2023/02/05 03:42:06;;;;;;;15.32;3.95;;;;;;;0.31;100.00;103400.53;5034838;28;20049;-81
2023/02/05 03:44:59;;;;;;;10.18;4.18;;;;;;;0.36;100.00;103400.50;5060200;28;20036;-81
2023/02/05 03:47:39;;;;;;;12.63;3.80;;;;;;;0.41;100.00;103413.50;5069488;28;20088;-80
2023/02/05 03:50:37;;;;;;;17.02;4.05;;;;;;;0.47;100.00;103429.09;5053594;28;20037;-79
2023/02/05 03:53:20;;;;;;;11.25;4.05;;;;;;;0.44;100.00;103437.81;5076833;28;20058;-79
2023/02/05 03:55:54;;;;;;;11.15;4.10;;;;;;;0.37;100.00;103430.84;5057693;28;20475;-78
2023/02/05 03:58:28;;;;;;;11.73;5.55;;;;;;;0.17;100.00;103434.38;5054396;28;20032;-79
2023/02/05 04:00:56;;;;;;;15.15;3.83;;;;;;;-0.11;100.00;103442.16;5062880;28;20711;-81
2023/02/05 04:03:22;;;;;;;15.45;4.65;;;;;;;-0.28;100.00;103448.25;5069123;28;20512;-81
2023/02/05 04:05:48;;;;;;;8.30;3.70;;;;;;;-0.58;100.00;103436.06;5060971;28;20028;-79
2023/02/05 04:08:14;;;;;;;20.27;4.28;;;;;;;-0.80;100.00;103449.88;5067726;28;20397;-79
2023/02/05 04:10:45;;;;;;;13.35;3.80;;;;;;;-0.76;100.00;103455.94;5070369;28;20037;-81
2023/02/05 04:13:11;;;;;;;16.80;4.50;;;;;;;-0.66;100.00;103462.03;5024507;28;20029;-81
2023/02/05 04:15:38;;;;;;;18.98;6.70;;;;;;;-0.65;100.00;103467.22;5047714;28;20063;-81
2023/02/05 04:18:07;;;;;;;17.42;6.57;;;;;;;-0.70;100.00;103481.94;5048780;28;20560;-81
2023/02/05 04:20:33;;;;;;;15.38;5.07;;;;;;;-0.59;100.00;103474.16;5042519;28;20116;-81
2023/02/05 04:22:59;;;;;;;14.15;4.57;;;;;;;-0.44;100.00;103468.16;5056199;28;20033;-81
2023/02/05 04:25:27;;;;;;;22.73;6.57;;;;;;;-0.37;100.00;103471.63;5062248;28;20135;-81
2023/02/05 04:27:57;;;;;;;24.80;6.05;;;;;;;-0.32;100.00;103477.69;5073994;28;20094;-81
2023/02/05 04:30:35;;;;;;;16.05;6.38;;;;;;;-0.20;100.00;103475.97;5030842;28;20072;-81
2023/02/05 04:33:04;;;;;;;16.45;6.20;;;;;;;-0.24;100.00;103466.44;5067431;28;20110;-81
2023/02/05 04:35:31;;;;;;;15.95;5.78;;;;;;;-0.22;100.00;103478.56;5053806;28;20028;-81
2023/02/05 04:37:59;;;;;;;20.75;5.82;;;;;;;-0.15;100.00;103488.13;5081637;28;20111;-80
2023/02/05 04:40:25;;;;;;;14.93;5.18;;;;;;;-0.15;100.00;103474.25;5069921;28;20047;-81
2023/02/05 04:42:51;;;;;;;14.27;5.57;;;;;;;-0.14;100.00;103474.25;5051969;28;20032;-80
2023/02/05 04:45:16;;;;;;;16.27;5.80;;;;;;;-0.08;100.00;103475.13;5053258;28;20043;-81
2023/02/05 04:47:42;;;;;;;15.02;4.43;;;;;;;-0.09;100.00;103468.19;5049848;28;20037;-81
2023/02/05 04:50:13;;;;;;;14.27;4.50;;;;;;;-0.08;100.00;103454.31;5044697;28;20431;-81
2023/02/05 04:52:39;;;;;;;12.20;4.07;;;;;;;-0.18;100.00;103459.53;5066817;28;20032;-80
2023/02/05 04:55:07;;;;;;;17.38;4.72;;;;;;;-0.16;100.00;103468.16;5046877;28;20038;-80
2023/02/05 04:57:33;;;;;;;11.52;4.43;;;;;;;-0.21;100.00;103464.72;5064713;28;20024;-80
2023/02/05 04:59:59;;;;;;;11.23;3.75;;;;;;;-0.25;100.00;103457.78;5050536;28;20119;-80
2023/02/05 05:02:25;;;;;;;14.98;4.72;;;;;;;-0.26;100.00;103469.91;5037878;28;20402;-80
2023/02/05 05:05:00;;;;;;;14.00;4.93;;;;;;;-0.28;100.00;103469.03;5085216;28;20044;-80
2023/02/05 05:07:29;;;;;;;12.38;4.35;;;;;;;-0.34;100.00;103437.84;5068471;28;20075;-79
2023/02/05 05:09:54;;;;;;;16.38;4.80;;;;;;;-0.43;100.00;103453.44;5068757;28;20028;-80
2023/02/05 05:12:21;;;;;;;12.82;4.40;;;;;;;-0.36;100.00;103469.88;5067066;28;20090;-80
2023/02/05 05:14:46;;;;;;;12.38;4.95;;;;;;;-0.42;100.00;103456.03;5039371;28;20044;-81
2023/02/05 05:17:13;;;;;;;10.40;4.28;;;;;;;-0.42;100.00;103476.81;5045717;28;20040;-79
2023/02/05 05:19:40;;;;;;;10.32;4.00;;;;;;;-0.42;100.00;103486.34;5068846;28;20040;-80
2023/02/05 05:22:05;;;;;;;10.60;3.03;;;;;;;-0.50;100.00;103478.53;5050148;28;20040;-80
2023/02/05 05:24:31;;;;;;;15.32;3.80;;;;;;;-0.54;100.00;103487.19;5065608;28;20037;-81
2023/02/05 05:26:58;;;;;;;16.73;3.28;;;;;;;-0.56;100.00;103489.78;5035133;28;20044;-80
2023/02/05 05:29:26;;;;;;;13.25;3.20;;;;;;;-0.60;100.00;103479.34;5048825;28;20032;-80
2023/02/05 05:31:52;;;;;;;12.63;3.80;;;;;;;-0.68;100.00;103475.00;5035316;28;20051;-81
2023/02/05 05:34:18;;;;;;;9.82;3.55;;;;;;;-0.66;100.00;103475.03;5068334;28;20405;-80
2023/02/05 05:36:46;;;;;;;9.73;3.45;;;;;;;-0.68;100.00;103461.16;5068099;28;20178;-81
2023/02/05 05:44:41;;;;;;;15.38;3.40;;;;;;;-0.56;100.00;103460.34;5088139;28;20037;-79
2023/02/05 05:47:06;;;;;;;13.65;3.70;;;;;;;-0.59;100.00;103457.72;5063536;28;20036;-79
2023/02/05 05:49:32;;;;;;;21.50;5.68;;;;;;;-0.61;100.00;103449.06;5068314;28;20036;-80
2023/02/05 05:51:58;;;;;;;14.57;3.88;;;;;;;-0.68;100.00;103448.16;5047147;28;20059;-80
2023/02/05 05:54:26;;;;;;;6.65;3.38;;;;;;;-0.81;100.00;103442.09;5047369;28;20138;-80
2023/02/05 05:56:52;;;;;;;13.55;5.20;;;;;;;-0.83;100.00;103452.47;5041789;28;20473;-81
2023/02/05 05:59:17;;;;;;;18.55;7.15;;;;;;;-0.75;100.00;103460.28;5070588;28;20028;-80
2023/02/05 06:01:46;;;;;;;15.07;5.05;;;;;;;-0.76;100.00;103458.53;5060464;28;20029;-80
2023/02/05 06:04:11;;;;;;;15.70;6.38;;;;;;;-0.76;100.00;103454.22;5055166;28;20075;-80
2023/02/05 06:06:37;;;;;;;23.98;8.30;;;;;;;-0.73;100.00;103458.53;5084185;28;20488;-80
2023/02/05 06:09:06;;;;;;;21.13;6.75;;;;;;;-0.71;100.00;103442.97;5041827;28;20500;-81
2023/02/05 06:11:32;;;;;;;15.75;6.78;;;;;;;-0.68;100.00;103446.44;5058017;28;20025;-79
2023/02/05 06:13:57;;;;;;;17.33;6.07;;;;;;;-0.64;100.00;103457.72;5065138;28;20056;-79
2023/02/05 06:16:23;;;;;;;15.93;5.95;;;;;;;-0.57;100.00;103453.38;5054662;28;20052;-79
2023/02/05 06:18:49;;;;;;;15.25;5.47;;;;;;;-0.53;100.00;103445.63;5067742;28;20482;-79
2023/02/05 06:21:15;;;;;;;17.55;6.47;;;;;;;-0.46;100.00;103443.03;5060337;28;20032;-80
2023/02/05 06:23:41;;;;;;;12.82;5.07;;;;;;;-0.49;100.00;103453.41;5043424;28;20086;-80
2023/02/05 06:26:07;;;;;;;12.70;4.85;;;;;;;-0.52;100.00;103436.94;5065854;28;20036;-80
2023/02/05 06:28:33;;;;;;;14.40;4.55;;;;;;;-0.48;100.00;103434.34;5069379;28;20033;-80
2023/02/05 06:30:58;;;;;;;13.95;5.13;;;;;;;-0.50;100.00;103436.94;5069362;28;20039;-80
2023/02/05 06:33:24;;;;;;;16.15;4.82;;;;;;;-0.48;100.00;103431.75;5073361;28;20051;-78
2023/02/05 06:35:50;;;;;;;16.33;4.80;;;;;;;-0.56;100.00;103443.03;5068901;28;20698;-78
2023/02/05 06:38:16;;;;;;;10.23;3.90;;;;;;;-0.66;100.00;103449.91;5070003;28;20421;-79
2023/02/05 06:40:42;;;;;;;11.20;3.75;;;;;;;-0.72;100.00;103451.63;5069208;28;20119;-78
2023/02/05 06:43:08;;;;;;;16.42;3.65;;;;;;;-0.80;100.00;103447.28;5047840;28;20072;-80
2023/02/05 06:45:34;;;;;;;9.73;3.50;;;;;;;-0.82;100.00;103440.34;5065775;28;20059;-80
2023/02/05 06:48:00;;;;;;;12.52;3.95;;;;;;;-0.87;100.00;103455.91;5070262;28;20082;-80
2023/02/05 06:50:27;;;;;;;9.35;3.72;;;;;;;-0.96;100.00;103454.16;5070651;28;20124;-79
2023/02/05 06:52:52;;;;;;;10.00;3.60;;;;;;;-1.06;100.00;103467.94;5054307;28;20037;-80
2023/02/05 06:55:21;;;;;;;9.27;3.25;;;;;;;-1.13;100.00;103474.81;5065883;28;20457;-80
2023/02/05 06:57:47;;;;;;;14.45;3.90;;;;;;;-1.14;100.00;103467.91;5072514;28;20036;-80
2023/02/05 07:00:16;;;;;;;18.58;4.80;;;;;;;-1.10;100.00;103480.06;5069554;28;20112;-80
2023/02/05 07:02:42;;;;;;;15.35;3.95;;;;;;;-1.08;100.00;103480.06;5071614;28;20063;-80
2023/02/05 07:05:08;;;;;;;13.93;4.10;;;;;;;-1.07;100.00;103476.59;5070317;28;20036;-80
2023/02/05 07:07:34;;;;;;;12.93;4.60;;;;;;;-1.08;100.00;103474.88;5034821;28;20460;-80
2023/02/05 07:10:00;;;;;;;8.52;3.65;;;;;;;-1.07;100.00;103472.28;5067153;28;20182;-80
2023/02/05 07:12:26;;;;;;;11.30;4.47;;;;;;;-1.04;100.00;103479.22;5058856;28;20125;-80
2023/02/05 07:14:52;;;;;;;12.88;3.53;;;;;;;-1.00;100.00;103486.13;5067760;28;20118;-80
2023/02/05 07:17:19;;;;;;;8.07;3.72;;;;;;;-0.96;100.00;103485.31;5089097;28;20047;-80
2023/02/05 07:19:45;;;;;;;13.57;3.72;;;;;;;-0.97;100.00;103485.31;5074610;28;20025;-78
2023/02/05 07:22:15;;;;;;;8.65;3.58;;;;;;;-1.07;100.00;103490.47;5073528;28;20025;-78
2023/02/05 07:24:41;;;;;;;11.07;5.40;;;;;;;-1.11;100.00;103480.06;5054698;28;20477;-80
2023/02/05 07:27:07;;;;;;;12.70;4.00;;;;;;;-1.18;100.00;103480.00;5061723;28;20028;-80
2023/02/05 07:29:32;;;;;;;9.63;3.67;;;;;;;-1.25;100.00;103479.13;5066104;28;20032;-80
2023/02/05 07:31:58;;;;;;;11.68;4.07;;;;;;;-1.24;100.00;103498.13;5063523;28;20033;-80
2023/02/05 07:34:32;;;;;;;10.88;4.07;;;;;;;-1.20;100.00;103504.22;5070997;28;20115;-80
2023/02/05 07:36:58;;;;;;;9.63;3.92;;;;;;;-1.22;100.00;103499.00;5050000;28;20056;-79
2023/02/05 07:39:24;;;;;;;10.10;3.35;;;;;;;-1.15;100.00;103502.53;5059038;28;20430;-79
2023/02/05 07:41:52;;;;;;;13.35;4.93;;;;;;;-1.09;100.00;103494.75;5068475;28;20033;-79
2023/02/05 07:44:27;;;;;;;14.02;4.25;;;;;;;-1.06;100.00;103496.50;5061750;28;20143;-80
2023/02/05 07:46:53;;;;;;;16.92;5.88;;;;;;;-1.06;100.00;103487.00;5085642;28;20044;-80
2023/02/05 07:49:18;;;;;;;12.43;5.40;;;;;;;-1.19;100.00;103473.06;5082202;28;20496;-80
2023/02/05 07:51:44;;;;;;;13.00;4.57;;;;;;;-1.41;100.00;103472.09;5058152;28;20036;-79
2023/02/05 07:54:14;;;;;;;14.15;4.53;;;;;;;-1.60;100.00;103484.94;5067095;28;20032;-80
2023/02/05 07:56:40;;;;;;;15.27;4.90;;;;;;;-1.80;100.00;103485.66;5066111;28;20042;-80
2023/02/05 07:59:07;;;;;;;12.18;5.97;;;;;;;-1.85;100.00;103491.66;5084724;28;20029;-79
2023/02/05 08:01:33;;;;;;;16.27;5.32;;;;;;;-1.87;100.00;103489.94;5066876;28;20481;-80
2023/02/05 08:04:00;;;;;;;19.70;6.05;;;;;;;-1.81;100.00;103493.41;5067773;28;20528;-80
2023/02/05 08:06:26;;;;;;;12.60;5.18;;;;;;;-1.72;100.00;103496.09;5049014;28;20045;-80
2023/02/05 08:08:55;;;;;;;21.70;4.47;;;;;;;-1.62;100.00;103499.63;5060730;28;20035;-79
2023/02/05 08:11:20;;;;;;;15.55;4.75;;;;;;;-1.60;100.00;103502.22;5049924;28;20044;-79
2023/02/05 08:13:46;;;;;;;11.00;5.15;;;;;;;-1.53;100.00;103509.22;5051725;28;20379;-80
2023/02/05 08:16:14;;;;;;;13.80;4.75;;;;;;;-1.45;100.00;103510.09;5063786;28;20028;-79
2023/02/05 08:18:40;;;;;;;14.43;4.55;;;;;;;-1.38;100.00;103514.50;5081547;28;20028;-78
2023/02/05 08:21:06;;;;;;;15.48;5.13;;;;;;;-1.39;100.00;103519.69;5069063;28;20036;-80
2023/02/05 08:23:32;;;;;;;14.93;6.03;;;;;;;-1.38;100.00;103501.53;5069132;28;20033;-79
2023/02/05 08:25:58;;;;;;;18.52;8.07;;;;;;;-1.35;100.00;103500.66;5063514;28;20033;-80
2023/02/05 08:28:26;;;;;;;20.67;8.65;;;;;;;-1.30;100.00;103498.09;5070310;28;20389;-80
2023/02/05 08:30:52;;;;;;;20.55;9.70;;;;;;;-1.24;100.00;103498.13;5051512;28;20037;-80
2023/02/05 08:33:18;;;;;;;25.17;7.88;;;;;;;-1.18;100.00;103492.97;5052165;28;20544;-79
2023/02/05 08:35:44;;;;;;;18.45;6.32;;;;;;;-1.15;100.00;103499.94;5058246;28;20041;-78
2023/02/05 08:38:09;;;;;;;13.68;6.57;;;;;;;-1.14;100.00;103497.34;5069028;28;20366;-78
2023/02/05 08:40:35;;;;;;;20.98;6.70;;;;;;;-1.09;100.00;103499.09;5074295;28;20037;-79
2023/02/05 08:43:01;;;;;;;14.65;6.35;;;;;;;-1.06;100.00;103488.72;5066104;28;20114;-80
2023/02/05 08:45:28;;;;;;;17.33;5.95;;;;;;;-1.04;100.00;103487.00;5042991;28;20067;-80
2023/02/05 08:47:54;;;;;;;10.75;4.70;;;;;;;-1.06;100.00;103493.91;5080097;28;20119;-79
2023/02/05 08:50:20;;;;;;;13.23;5.50;;;;;;;-1.01;100.00;103503.47;5064943;28;20381;-79
2023/02/05 08:52:47;;;;;;;16.50;4.75;;;;;;;-0.94;100.00;103496.56;5051670;28;20032;-79
2023/02/05 08:55:13;;;;;;;15.52;4.63;;;;;;;-0.85;100.00;103513.03;5067451;28;20033;-79
2023/02/05 08:57:39;;;;;;;13.27;5.57;;;;;;;-0.79;100.00;103519.13;5041708;28;20477;-79
2023/02/05 09:00:06;;;;;;;22.15;5.13;;;;;;;-0.78;100.00;103505.28;5077687;28;20119;-80
2023/02/05 09:02:32;;;;;;;16.67;4.60;;;;;;;-0.83;100.00;103516.53;5066030;28;20102;-80
2023/02/05 09:05:03;;;;;;;11.02;3.95;;;;;;;-0.90;100.00;103523.41;5064100;28;20459;-80
2023/02/05 09:07:32;;;;;;;18.55;5.45;;;;;;;-0.94;100.00;103532.91;5076330;28;20032;-80
2023/02/05 09:09:59;;;;;;;16.42;5.63;;;;;;;-0.99;100.00;103537.22;5063542;28;20032;-79
2023/02/05 09:12:28;;;;;;;14.63;5.70;;;;;;;-1.05;100.00;103532.00;5067151;28;20090;-80
2023/02/05 09:15:03;;;;;;;11.93;4.82;;;;;;;-1.06;100.00;103541.50;5058819;28;20041;-79
2023/02/05 09:17:29;;;;;;;19.33;5.78;;;;;;;-0.93;100.00;103529.47;5067641;28;20048;-80
2023/02/05 09:19:54;;;;;;;12.48;4.97;;;;;;;-0.86;100.00;103527.75;5072345;28;20032;-80
2023/02/05 09:22:31;;;;;;;13.88;6.60;;;;;;;-0.70;100.00;103530.44;5065751;28;20036;-80
2023/02/05 09:24:56;;;;;;;18.65;5.72;;;;;;;-0.64;100.00;103527.88;5064578;28;20485;-80
2023/02/05 09:27:22;;;;;;;21.50;5.70;;;;;;;-0.54;100.00;103524.41;5044520;28;20025;-79
2023/02/05 09:29:48;;;;;;;16.88;6.18;;;;;;;-0.47;100.00;103514.91;5066449;28;20028;-80
2023/02/05 09:32:14;;;;;;;18.48;5.18;;;;;;;-0.39;100.00;103526.22;5041599;28;20031;-80
2023/02/05 09:34:40;;;;;;;15.55;4.82;;;;;;;-0.30;100.00;103509.75;5045556;28;20040;-79
2023/02/05 09:37:05;;;;;;;13.35;5.50;;;;;;;-0.27;100.00;103506.31;5064245;28;20365;-78
2023/02/05 09:39:31;;;;;;;8.95;4.55;;;;;;;-0.26;100.00;103506.31;5066057;28;20040;-78
2023/02/05 09:42:20;;;;;;;15.45;5.60;;;;;;;-0.23;100.00;103513.25;5076207;28;20037;-80
2023/02/05 09:45:08;;;;;;;27.88;6.20;;;;;;;-0.14;100.00;103512.38;5025457;28;20036;-78
2023/02/05 09:47:59;;;;;;;16.20;7.03;;;;;;;-0.02;100.00;103509.78;5062332;28;20033;-80
2023/02/05 09:50:30;;;;;;;18.20;7.47;;;;;;;0.09;100.00;103517.63;5060951;28;20037;-80
2023/02/05 09:53:02;;;;;;;17.73;7.50;;;;;;;0.19;100.00;103528.03;5062849;28;20109;-78
2023/02/05 09:55:41;;;;;;;22.10;7.47;;;;;;;0.23;100.00;103524.53;5079462;28;20480;-80
2023/02/05 09:58:14;;;;;;;16.27;7.05;;;;;;;0.29;100.00;103526.31;5060433;28;20074;-79
2023/02/05 10:00:53;;;;;;;18.67;8.88;;;;;;;0.38;100.00;103523.69;5083835;28;20048;-80
2023/02/05 10:03:41;;;;;;;24.38;10.73;;;;;;;0.43;100.00;103534.94;5045131;28;20045;-79
2023/02/05 10:06:13;;;;;;;20.70;8.20;;;;;;;0.44;100.00;103528.88;5065070;28;20035;-80
2023/02/05 10:08:42;;;;;;;20.00;8.18;;;;;;;0.52;100.00;103526.28;5064099;28;20052;-79
2023/02/05 10:11:18;;;;;;;24.58;7.80;;;;;;;0.71;100.00;103528.84;5050794;28;20129;-80
2023/02/05 10:13:58;;;;;;;19.30;8.25;;;;;;;0.78;100.00;103538.38;5058780;28;20397;-80
2023/02/05 10:17:05;;;;;;;22.45;7.75;;;;;;;0.93;100.00;103534.00;5080576;28;20108;-77
2023/02/05 10:19:56;;;;;;;22.20;7.43;;;;;;;1.02;100.00;103518.34;5064465;28;20099;-77
2023/02/05 10:22:44;;;;;;;19.77;7.55;;;;;;;1.18;100.00;103521.75;5079927;28;20037;-80
2023/02/05 10:25:33;;;;;;;16.63;7.53;;;;;;;1.33;100.00;103515.63;5057412;28;21302;-80
2023/02/05 10:28:13;;;;;;;17.48;6.90;;;;;;;1.47;100.00;103517.28;5069193;28;20031;-80
2023/02/05 10:31:00;;;;;;;23.48;7.15;;;;;;;1.54;100.00;103512.91;5059260;28;20029;-80
2023/02/05 10:33:42;;;;;;;;;;;;;;;1.52;100.00;103507.69;5064102;28;20171;-80
2023/02/05 10:36:10;;;;;;;21.65;6.03;;;;;;;1.57;100.00;103507.66;5062625;28;19913;-80
2023/02/05 10:38:42;;;;;;;19.08;6.38;;;;;;;1.67;100.00;103493.69;5055900;28;20041;-80
2023/02/05 10:41:32;;;;;;;21.88;5.55;;;;;;;1.73;100.00;103501.50;5064609;28;20568;-80
2023/02/05 10:44:33;;;;;;;16.63;6.90;;;;;;;1.83;100.00;103491.84;5065587;28;20063;-81
2023/02/05 10:47:11;;;;;;;25.58;8.93;;;;;;;1.93;100.00;103500.47;5048491;28;20045;-80
2023/02/05 10:49:42;;;;;;;31.17;12.52;;;;;;;2.02;100.00;103499.56;5067854;28;20032;-80
2023/02/05 10:52:11;;;;;;;25.60;12.68;;;;;;;2.16;100.00;103481.16;5067990;28;20029;-77
2023/02/05 10:54:39;;;;;;;31.80;13.10;;;;;;;2.28;100.00;103498.44;5082848;28;20051;-78
2023/02/05 10:57:12;;;;;;;24.27;10.65;;;;;;;2.44;100.00;103495.69;5051890;28;20037;-81
2023/02/05 10:59:48;;;;;;;35.28;14.13;;;;;;;2.56;100.00;103492.97;5065597;28;20518;-80
2023/02/05 11:02:14;;;;;;;27.63;10.98;;;;;;;2.65;100.00;103497.22;5068078;28;20032;-78
2023/02/05 11:04:43;;;;;;;26.98;9.48;;;;;;;2.73;100.00;103499.75;5085891;28;20074;-79
2023/02/05 11:07:22;;;;;;;24.90;8.57;;;;;;;2.74;100.00;103496.25;5053990;28;20043;-80
2023/02/05 11:09:48;;;;;;;21.95;6.15;;;;;;;2.76;100.00;103496.22;5066203;28;20032;-80
2023/02/05 11:12:27;;;;;;;26.67;6.82;;;;;;;2.88;100.00;103490.00;5068149;28;20086;-80
2023/02/05 11:15:01;;;;;;;15.73;5.18;;;;;;;3.06;100.00;103476.72;5068766;28;20036;-81
2023/02/05 11:17:33;;;;;;;14.48;5.55;;;;;;;3.18;100.00;103480.06;5070201;28;20042;-79
2023/02/05 11:20:06;;;;;;;16.17;5.73;;;;;;;3.15;100.00;103477.50;5062676;28;20040;-80
2023/02/05 11:22:35;;;;;;;14.15;5.40;;;;;;;3.26;100.00;103480.84;5006737;28;20036;-80
2023/02/05 11:25:20;;;;;;;22.67;5.57;;;;;;;3.51;100.00;103474.38;4998572;28;20103;-80
2023/02/05 11:27:56;;;;;;;23.38;4.82;;;;;;;3.69;100.00;103479.34;5083113;28;20037;-80
2023/02/05 11:30:31;;;;;;;19.90;4.90;;;;;;;3.85;100.00;103469.47;5080861;28;20042;-80
2023/02/05 11:32:58;;;;;;;20.65;6.35;;;;;;;3.99;100.00;103470.16;5053495;28;20638;-80
2023/02/05 11:35:31;;;;;;;26.42;6.70;;;;;;;4.14;100.00;103469.88;5051886;28;20154;-77